createdAt,value
2023-05-16T00:01:56.100Z,12.21
2023-05-16T00:31:59.115Z,12.04
2023-05-16T01:02:02.757Z,12.03
2023-05-16T01:32:06.138Z,11.58
2023-05-16T02:02:09.128Z,11.38
2023-05-16T02:32:12.230Z,11.14
2023-05-16T03:02:15.214Z,11.22
2023-05-16T03:32:18.147Z,10.82
2023-05-16T04:02:21.168Z,10.40
2023-05-16T04:32:24.263Z,10.13
2023-05-16T05:02:27.377Z,9.98
2023-05-16T05:32:30.560Z,10.13
2023-05-16T06:02:33.746Z,10.01
2023-05-16T06:32:36.823Z,9.86
2023-05-16T07:02:40.010Z,10.07
2023-05-16T07:32:43.120Z,10.26
2023-05-16T08:02:46.251Z,9.71
2023-05-16T08:32:49.314Z,10.39
2023-05-16T09:02:53.929Z,11.30
2023-05-16T09:32:46.234Z,15.36
2023-05-16T09:32:59.077Z,15.30
2023-05-16T09:33:12.188Z,15.28
2023-05-16T09:33:23.860Z,15.28
2023-05-16T09:33:35.576Z,15.27
2023-05-16T09:33:47.559Z,15.22
2023-05-16T09:34:00.278Z,15.18
2023-05-16T09:34:12.831Z,15.06
2023-05-16T09:34:24.465Z,14.95
2023-05-16T09:34:39.037Z,14.87
2023-05-16T09:34:51.616Z,14.83
2023-05-16T09:35:03.541Z,14.83
2023-05-16T09:35:19.396Z,14.81
2023-05-16T09:35:43.937Z,14.79
2023-05-16T09:35:58.228Z,14.88
2023-05-16T09:36:10.396Z,14.89
2023-05-16T09:36:22.037Z,14.87
2023-05-16T09:36:33.819Z,14.87
2023-05-16T09:36:46.781Z,14.88
2023-05-16T09:36:59.707Z,14.86
2023-05-16T09:37:11.758Z,14.87
2023-05-16T09:37:25.705Z,14.89
2023-05-16T09:37:37.362Z,14.94
2023-05-16T09:37:50.019Z,14.97
2023-05-16T09:38:02.572Z,15.02
2023-05-16T09:38:15.474Z,15.07
2023-05-16T09:38:27.896Z,15.10
2023-05-16T09:38:39.523Z,15.15
2023-05-16T09:38:52.267Z,15.19
2023-05-16T09:39:03.931Z,15.21
2023-05-16T09:39:15.759Z,15.22
2023-05-16T09:39:27.723Z,15.24
2023-05-16T09:39:42.866Z,15.27
2023-05-16T09:39:54.948Z,15.31
2023-05-16T09:40:08.618Z,15.36
2023-05-16T09:40:20.918Z,15.40
2023-05-16T09:40:32.570Z,15.43
2023-05-16T09:40:44.931Z,15.42
2023-05-16T09:40:57.776Z,15.47
2023-05-16T09:41:10.149Z,15.50
2023-05-16T09:41:22.174Z,15.52
2023-05-16T09:41:34.145Z,15.53
2023-05-16T09:41:45.915Z,15.52
2023-05-16T09:41:59.153Z,15.53
2023-05-16T09:42:11.499Z,15.54
2023-05-16T09:42:26.350Z,15.56
2023-05-16T09:42:38.117Z,15.55
2023-05-16T09:43:04.621Z,15.52
2023-05-16T09:43:17.604Z,15.48
2023-05-16T09:43:29.793Z,15.49
2023-05-16T09:43:43.624Z,15.51
2023-05-16T09:43:55.615Z,15.52
2023-05-16T09:44:07.380Z,15.50
2023-05-16T09:44:19.161Z,15.48
2023-05-16T09:44:31.682Z,15.50
2023-05-16T09:44:46.782Z,15.50
2023-05-16T09:44:59.393Z,15.52
2023-05-16T09:45:12.916Z,15.57
2023-05-16T09:45:24.685Z,15.58
2023-05-16T09:45:36.930Z,15.49
2023-05-16T09:45:49.122Z,15.46
2023-05-16T09:46:02.716Z,15.46
2023-05-16T09:46:15.073Z,15.48
2023-05-16T09:46:28.644Z,15.53
2023-05-16T09:46:41.127Z,15.56
2023-05-16T09:46:54.444Z,15.62
2023-05-16T09:47:06.386Z,15.68
2023-05-16T09:47:19.705Z,15.73
2023-05-16T09:47:31.312Z,15.80
2023-05-16T09:47:46.560Z,15.88
2023-05-16T09:48:02.451Z,15.97
2023-05-16T09:48:14.983Z,16.04
2023-05-16T09:48:28.566Z,16.11
2023-05-16T09:48:42.296Z,16.21
2023-05-16T09:48:55.333Z,16.31
2023-05-16T09:49:07.010Z,16.40
2023-05-16T09:49:19.022Z,16.49
2023-05-16T09:49:30.914Z,16.58
2023-05-16T09:49:43.755Z,16.66
2023-05-16T09:49:56.606Z,16.71
2023-05-16T09:50:08.972Z,16.73
2023-05-16T09:50:20.689Z,16.75
2023-05-16T09:50:33.471Z,16.77
2023-05-16T09:50:51.095Z,16.81
2023-05-16T09:51:06.832Z,16.86
2023-05-16T09:51:22.316Z,16.93
2023-05-16T09:51:34.499Z,16.98
2023-05-16T09:51:46.412Z,17.05
2023-05-16T09:52:01.126Z,17.08
2023-05-16T09:52:14.451Z,17.01
2023-05-16T09:52:26.996Z,17.02
2023-05-16T09:52:38.629Z,17.06
2023-05-16T09:52:51.059Z,17.13
2023-05-16T09:53:03.013Z,17.20
2023-05-16T09:53:14.622Z,17.27
2023-05-16T09:53:28.558Z,17.35
2023-05-16T09:53:41.578Z,17.44
2023-05-16T09:53:53.229Z,17.42
2023-05-16T09:54:07.991Z,17.36
2023-05-16T09:54:29.968Z,17.34
2023-05-16T09:54:42.579Z,17.37
2023-05-16T09:54:54.804Z,17.45
2023-05-16T09:55:07.457Z,17.48
2023-05-16T09:55:19.263Z,17.54
2023-05-16T09:55:31.340Z,17.62
2023-05-16T09:55:43.334Z,17.69
2023-05-16T09:56:03.421Z,17.78
2023-05-16T09:56:15.833Z,17.86
2023-05-16T09:56:27.485Z,17.92
2023-05-16T09:56:49.118Z,18.06
2023-05-16T09:57:02.853Z,18.12
2023-05-16T09:57:19.257Z,18.18
2023-05-16T09:57:30.978Z,18.22
2023-05-16T09:57:42.614Z,18.27
2023-05-16T09:57:55.353Z,18.32
2023-05-16T09:58:06.965Z,18.38
2023-05-16T09:58:18.843Z,18.44
2023-05-16T09:58:31.293Z,18.51
2023-05-16T09:58:46.051Z,18.57
2023-05-16T09:59:00.274Z,18.60
2023-05-16T09:59:11.992Z,18.63
2023-05-16T09:59:23.947Z,18.67
2023-05-16T09:59:36.498Z,18.72
2023-05-16T09:59:48.323Z,18.74
2023-05-16T10:00:02.004Z,18.75
2023-05-16T10:00:14.885Z,18.75
2023-05-16T10:00:30.022Z,18.78
2023-05-16T10:00:41.736Z,18.82
2023-05-16T10:00:53.594Z,18.84
2023-05-16T10:01:07.335Z,18.86
2023-05-16T10:01:19.435Z,18.90
2023-05-16T10:01:31.255Z,18.90
2023-05-16T10:01:43.807Z,18.91
2023-05-16T10:01:57.775Z,18.95
2023-05-16T10:02:11.506Z,18.99
2023-05-16T10:02:23.455Z,19.02
2023-05-16T10:02:35.701Z,19.04
2023-05-16T10:02:49.844Z,18.99
2023-05-16T10:03:04.879Z,18.94
2023-05-16T10:03:18.086Z,18.84
2023-05-16T10:03:31.539Z,18.59
2023-05-16T10:03:43.711Z,18.46
2023-05-16T10:03:55.686Z,18.41
2023-05-16T10:04:10.482Z,18.35
2023-05-16T10:04:24.846Z,18.33
2023-05-16T10:04:36.810Z,18.34
2023-05-16T10:04:49.458Z,18.38
2023-05-16T10:05:01.196Z,18.45
2023-05-16T10:05:12.779Z,18.51
2023-05-16T10:05:24.981Z,18.56
2023-05-16T10:05:36.831Z,18.61
2023-05-16T10:05:48.471Z,18.66
2023-05-16T10:06:01.257Z,18.73
2023-05-16T10:06:13.665Z,18.75
2023-05-16T10:06:26.014Z,18.46
2023-05-16T10:06:40.304Z,18.40
2023-05-16T10:06:52.318Z,18.46
2023-05-16T10:07:04.920Z,18.53
2023-05-16T10:07:17.668Z,18.61
2023-05-16T10:07:32.784Z,18.71
2023-05-16T10:07:44.572Z,18.80
2023-05-16T10:07:57.193Z,18.86
2023-05-16T10:08:09.658Z,18.89
2023-05-16T10:08:21.994Z,18.92
2023-05-16T10:08:36.740Z,18.95
2023-05-16T10:08:48.802Z,18.89
2023-05-16T10:09:03.062Z,18.88
2023-05-16T10:09:16.313Z,18.84
2023-05-16T10:09:28.869Z,18.83
2023-05-16T10:09:41.849Z,18.81
2023-05-16T10:09:54.757Z,18.80
2023-05-16T10:10:08.248Z,18.78
2023-05-16T10:10:20.507Z,18.79
2023-05-16T10:10:35.698Z,18.75
2023-05-16T10:10:51.504Z,18.67
2023-05-16T10:11:04.026Z,18.74
2023-05-16T10:11:16.894Z,18.76
2023-05-16T10:11:28.633Z,18.78
2023-05-16T10:11:42.560Z,18.77
2023-05-16T10:11:55.975Z,18.85
2023-05-16T10:12:09.425Z,18.90
2023-05-16T10:12:27.533Z,18.99
2023-05-16T10:12:39.662Z,19.02
2023-05-16T10:12:51.746Z,18.99
2023-05-16T10:13:05.827Z,19.05
2023-05-16T10:13:21.518Z,19.08
2023-05-16T10:13:34.737Z,19.09
2023-05-16T10:13:50.457Z,19.05
2023-05-16T10:14:03.067Z,18.79
2023-05-16T10:14:17.984Z,18.34
2023-05-16T10:14:30.667Z,18.28
2023-05-16T10:14:42.433Z,18.23
2023-05-16T10:14:54.134Z,18.29
2023-05-16T10:15:07.621Z,18.34
2023-05-16T10:15:19.951Z,18.33
2023-05-16T10:15:34.298Z,18.31
2023-05-16T10:15:46.701Z,18.39
2023-05-16T10:16:00.458Z,18.42
2023-05-16T10:16:12.786Z,18.46
2023-05-16T10:16:26.754Z,18.54
2023-05-16T10:16:40.741Z,18.49
2023-05-16T10:16:53.136Z,18.36
2023-05-16T10:17:07.073Z,18.32
2023-05-16T10:17:19.033Z,18.34
2023-05-16T10:17:32.751Z,18.34
2023-05-16T10:17:52.569Z,18.34
2023-05-16T10:18:04.931Z,18.42
2023-05-16T10:18:18.209Z,18.51
2023-05-16T10:18:30.905Z,18.59
2023-05-16T10:18:42.848Z,18.56
2023-05-16T10:18:56.241Z,18.63
2023-05-16T10:19:07.935Z,18.57
2023-05-16T10:19:21.857Z,18.57
2023-05-16T10:19:36.241Z,18.62
2023-05-16T10:19:48.624Z,18.64
2023-05-16T10:20:01.999Z,18.67
2023-05-16T10:20:14.784Z,18.63
2023-05-16T10:20:26.924Z,18.58
2023-05-16T10:20:40.046Z,18.56
2023-05-16T10:20:53.825Z,18.61
2023-05-16T10:21:10.477Z,18.58
2023-05-16T10:21:25.734Z,18.61
2023-05-16T10:21:38.990Z,18.63
2023-05-16T10:21:54.642Z,18.67
2023-05-16T10:22:07.245Z,18.69
2023-05-16T10:22:20.104Z,18.74
2023-05-16T10:22:33.295Z,18.80
2023-05-16T10:22:46.341Z,18.83
2023-05-16T10:22:58.477Z,18.88
2023-05-16T10:23:12.865Z,18.93
2023-05-16T10:23:26.324Z,19.02
2023-05-16T10:23:39.272Z,19.08
2023-05-16T10:23:51.824Z,19.13
2023-05-16T10:24:05.657Z,19.19
2023-05-16T10:24:18.494Z,19.27
2023-05-16T10:24:34.395Z,19.35
2023-05-16T10:24:49.023Z,19.38
2023-05-16T10:25:06.200Z,19.48
2023-05-16T10:25:20.719Z,19.56
2023-05-16T10:25:36.015Z,19.62
2023-05-16T10:25:49.115Z,19.67
2023-05-16T10:26:03.447Z,19.74
2023-05-16T10:26:17.477Z,19.70
2023-05-16T10:26:29.832Z,19.60
2023-05-16T10:26:42.588Z,19.64
2023-05-16T10:26:54.332Z,19.65
2023-05-16T10:27:06.253Z,19.73
2023-05-16T10:27:19.414Z,19.80
2023-05-16T10:27:31.389Z,19.88
2023-05-16T10:27:43.150Z,19.80
2023-05-16T10:27:55.999Z,19.80
2023-05-16T10:28:08.650Z,19.72
2023-05-16T10:28:20.756Z,19.68
2023-05-16T10:28:33.076Z,19.61
2023-05-16T10:28:46.586Z,19.61
2023-05-16T10:28:58.702Z,19.61
2023-05-16T10:29:10.557Z,19.64
2023-05-16T10:29:22.834Z,19.67
2023-05-16T10:29:46.503Z,19.69
2023-05-16T10:30:09.985Z,19.53
2023-05-16T10:30:22.372Z,19.48
2023-05-16T10:30:34.299Z,19.46
2023-05-16T10:30:46.893Z,19.49
2023-05-16T10:30:59.466Z,19.51
2023-05-16T10:31:13.511Z,19.56
2023-05-16T10:31:25.686Z,19.61
2023-05-16T10:31:37.650Z,19.58
2023-05-16T10:31:49.464Z,19.54
2023-05-16T10:32:01.615Z,19.54
2023-05-16T10:32:13.838Z,19.51
2023-05-16T10:32:27.373Z,19.32
2023-05-16T10:32:42.536Z,19.26
2023-05-16T10:32:57.255Z,19.25
2023-05-16T10:33:09.205Z,19.22
2023-05-16T10:33:21.037Z,19.11
2023-05-16T10:33:33.676Z,19.00
2023-05-16T10:33:46.032Z,18.97
2023-05-16T10:33:57.785Z,18.99
2023-05-16T10:34:10.202Z,18.81
2023-05-16T10:34:22.313Z,18.76
2023-05-16T10:34:34.297Z,18.77
2023-05-16T10:34:47.505Z,18.80
2023-05-16T10:35:01.163Z,18.86
2023-05-16T10:35:12.881Z,18.93
2023-05-16T10:35:24.842Z,19.01
2023-05-16T10:35:38.916Z,19.08
2023-05-16T10:35:52.398Z,19.18
2023-05-16T10:36:05.531Z,19.24
2023-05-16T10:36:18.368Z,19.33
2023-05-16T10:36:31.264Z,19.40
2023-05-16T10:36:43.612Z,19.50
2023-05-16T10:36:55.327Z,19.58
2023-05-16T10:37:08.397Z,19.66
2023-05-16T10:37:20.120Z,19.76
2023-05-16T10:37:32.177Z,19.80
2023-05-16T10:37:44.417Z,19.88
2023-05-16T10:37:57.291Z,19.95
2023-05-16T10:38:12.032Z,19.96
2023-05-16T10:38:24.977Z,19.86
2023-05-16T10:38:37.972Z,19.86
2023-05-16T10:38:49.968Z,19.91
2023-05-16T10:39:02.424Z,19.99
2023-05-16T10:39:15.256Z,20.05
2023-05-16T10:39:27.952Z,20.15
2023-05-16T10:39:39.852Z,20.21
2023-05-16T10:39:53.080Z,20.29
2023-05-16T10:40:07.901Z,20.37
2023-05-16T10:40:19.981Z,20.43
2023-05-16T10:40:32.033Z,20.46
2023-05-16T10:40:44.057Z,20.50
2023-05-16T10:40:56.141Z,20.53
2023-05-16T10:41:09.695Z,20.54
2023-05-16T10:41:22.053Z,20.53
2023-05-16T10:41:34.145Z,20.44
2023-05-16T10:41:46.376Z,20.34
2023-05-16T10:41:58.196Z,20.32
2023-05-16T10:42:09.938Z,20.36
2023-05-16T10:42:23.130Z,20.41
2023-05-16T10:42:35.028Z,20.47
2023-05-16T10:42:56.447Z,20.57
2023-05-16T10:43:09.116Z,20.62
2023-05-16T10:43:24.829Z,20.59
2023-05-16T10:43:37.492Z,20.62
2023-05-16T10:43:56.544Z,20.64
2023-05-16T10:44:13.803Z,20.65
2023-05-16T10:44:25.955Z,20.65
2023-05-16T10:44:39.416Z,20.69
2023-05-16T10:45:04.965Z,20.73
2023-05-16T10:45:18.241Z,20.81
2023-05-16T10:45:30.401Z,20.86
2023-05-16T10:45:42.507Z,20.89
2023-05-16T10:45:55.733Z,20.94
2023-05-16T10:46:09.664Z,20.99
2023-05-16T10:46:24.347Z,21.07
2023-05-16T10:46:38.528Z,21.06
2023-05-16T10:46:50.372Z,20.98
2023-05-16T10:47:04.485Z,20.97
2023-05-16T10:47:19.248Z,20.97
2023-05-16T10:47:31.897Z,20.70
2023-05-16T10:47:51.650Z,20.64
2023-05-16T10:48:06.495Z,20.59
2023-05-16T10:48:29.141Z,20.62
2023-05-16T10:48:43.956Z,20.68
2023-05-16T10:48:59.091Z,20.74
2023-05-16T10:49:20.923Z,20.87
2023-05-16T10:49:32.576Z,20.95
2023-05-16T10:49:44.188Z,21.00
2023-05-16T10:49:56.758Z,21.05
2023-05-16T10:50:08.997Z,21.12
2023-05-16T10:50:34.381Z,21.20
2023-05-16T10:50:46.608Z,21.26
2023-05-16T10:50:59.448Z,21.29
2023-05-16T10:51:36.431Z,21.42
2023-05-16T10:52:02.211Z,21.52
2023-05-16T10:52:15.708Z,21.62
2023-05-16T10:52:34.694Z,21.64
2023-05-16T10:52:46.354Z,21.68
2023-05-16T10:53:12.345Z,21.72
2023-05-16T10:53:32.957Z,21.65
2023-05-16T10:53:44.644Z,21.65
2023-05-16T10:54:06.204Z,21.71
2023-05-16T10:54:19.529Z,21.73
2023-05-16T10:54:38.276Z,21.75
2023-05-16T10:54:52.351Z,21.68
2023-05-16T10:55:04.821Z,21.56
2023-05-16T10:55:18.053Z,21.48
2023-05-16T10:55:30.529Z,21.50
2023-05-16T10:55:46.225Z,21.53
2023-05-16T10:56:10.378Z,21.56
2023-05-16T10:56:23.288Z,21.64
2023-05-16T10:56:35.127Z,21.67
2023-05-16T10:56:56.228Z,21.72
2023-05-16T10:57:11.720Z,21.75
2023-05-16T10:57:23.995Z,21.81
2023-05-16T10:57:36.731Z,21.87
2023-05-16T10:57:48.448Z,21.89
2023-05-16T10:58:03.282Z,21.81
2023-05-16T10:58:19.204Z,21.68
2023-05-16T10:58:41.192Z,21.66
2023-05-16T10:58:55.346Z,21.68
2023-05-16T10:59:23.076Z,21.67
2023-05-16T10:59:42.369Z,21.77
2023-05-16T10:59:58.402Z,21.79
2023-05-16T11:00:22.142Z,21.76
2023-05-16T11:00:33.886Z,21.77
2023-05-16T11:00:45.494Z,21.81
2023-05-16T11:01:15.683Z,21.86
2023-05-16T11:01:30.190Z,21.89
2023-05-16T11:01:42.006Z,21.89
2023-05-16T11:01:55.186Z,21.92
2023-05-16T11:02:21.997Z,22.00
2023-05-16T11:02:43.149Z,22.01
2023-05-16T11:03:06.571Z,21.90
2023-05-16T11:03:25.419Z,21.84
2023-05-16T11:03:37.375Z,21.81
2023-05-16T11:04:11.076Z,21.76
2023-05-16T11:04:22.761Z,21.77
2023-05-16T11:04:46.001Z,21.51
2023-05-16T11:04:59.464Z,21.35
2023-05-16T11:05:15.172Z,21.15
2023-05-16T11:05:27.696Z,21.17
2023-05-16T11:05:39.528Z,21.17
2023-05-16T11:05:53.975Z,21.16
2023-05-16T11:06:06.162Z,21.06
2023-05-16T11:06:23.521Z,21.06
2023-05-16T11:06:45.834Z,21.14
2023-05-16T11:06:58.397Z,21.11
2023-05-16T11:07:11.316Z,21.06
2023-05-16T11:07:24.183Z,21.03
2023-05-16T11:07:38.513Z,20.98
2023-05-16T11:08:04.425Z,20.98
2023-05-16T11:08:16.222Z,20.94
2023-05-16T11:08:27.907Z,20.92
2023-05-16T11:08:58.500Z,20.85
2023-05-16T11:09:22.124Z,20.80
2023-05-16T11:09:33.848Z,20.83
2023-05-16T11:09:45.777Z,20.87
2023-05-16T11:10:08.083Z,20.97
2023-05-16T11:10:21.622Z,21.00
2023-05-16T11:10:33.517Z,21.03
2023-05-16T11:10:45.556Z,21.11
2023-05-16T11:11:26.958Z,21.26
2023-05-16T11:11:44.330Z,21.46
2023-05-16T11:12:02.851Z,21.55
2023-05-16T11:12:16.103Z,21.56
2023-05-16T11:12:37.133Z,21.59
2023-05-16T11:12:49.627Z,21.65
2023-05-16T11:13:03.927Z,21.67
2023-05-16T11:13:19.583Z,21.72
2023-05-16T11:13:34.169Z,21.80
2023-05-16T11:13:57.502Z,21.78
2023-05-16T11:14:09.330Z,21.84
2023-05-16T11:14:22.161Z,21.88
2023-05-16T11:14:39.236Z,21.94
2023-05-16T11:14:52.912Z,21.97
2023-05-16T11:15:18.891Z,22.07
2023-05-16T11:15:32.441Z,22.06
2023-05-16T11:15:44.305Z,22.09
2023-05-16T11:16:28.423Z,22.14
2023-05-16T11:16:40.226Z,22.16
2023-05-16T11:16:53.606Z,22.16
2023-05-16T11:17:08.547Z,22.09
2023-05-16T11:17:22.860Z,21.95
2023-05-16T11:17:44.053Z,21.89
2023-05-16T11:18:09.762Z,21.82
2023-05-16T11:18:26.087Z,21.68
2023-05-16T11:18:50.258Z,21.32
2023-05-16T11:19:05.102Z,21.28
2023-05-16T11:19:29.358Z,21.28
2023-05-16T11:19:43.397Z,21.28
2023-05-16T11:19:59.561Z,21.31
2023-05-16T11:20:25.755Z,21.24
2023-05-16T11:20:39.370Z,21.25
2023-05-16T11:20:52.891Z,21.23
2023-05-16T11:21:04.899Z,21.05
2023-05-16T11:21:16.739Z,21.00
2023-05-16T11:22:02.937Z,20.88
2023-05-16T11:22:23.255Z,20.63
2023-05-16T11:22:41.146Z,20.68
2023-05-16T11:23:19.728Z,20.70
2023-05-16T11:23:31.485Z,20.77
2023-05-16T11:23:44.149Z,20.83
2023-05-16T11:24:28.936Z,20.71
2023-05-16T11:24:49.518Z,20.55
2023-05-16T11:25:04.158Z,20.45
2023-05-16T11:25:15.856Z,20.41
2023-05-16T11:25:36.064Z,20.45
2023-05-16T11:25:50.627Z,20.51
2023-05-16T11:26:03.425Z,20.60
2023-05-16T11:26:16.012Z,20.64
2023-05-16T11:26:27.648Z,20.70
2023-05-16T11:26:39.287Z,20.76
2023-05-16T11:26:50.931Z,20.83
2023-05-16T11:27:03.811Z,20.89
2023-05-16T11:27:21.297Z,20.97
2023-05-16T11:27:35.341Z,20.86
2023-05-16T11:27:47.970Z,20.87
2023-05-16T11:27:59.785Z,20.87
2023-05-16T11:28:13.370Z,20.91
2023-05-16T11:28:26.019Z,20.84
2023-05-16T11:28:37.681Z,20.81
2023-05-16T11:28:49.647Z,20.74
2023-05-16T11:29:03.956Z,20.61
2023-05-16T11:29:15.661Z,20.50
2023-05-16T11:29:28.781Z,20.37
2023-05-16T11:29:40.361Z,20.36
2023-05-16T11:29:52.555Z,20.21
2023-05-16T11:30:13.876Z,20.09
2023-05-16T11:30:25.472Z,20.09
2023-05-16T11:30:37.105Z,20.08
2023-05-16T11:30:51.103Z,20.08
2023-05-16T11:31:05.256Z,20.14
2023-05-16T11:31:18.257Z,20.23
2023-05-16T11:31:30.282Z,20.30
2023-05-16T11:31:42.996Z,20.32
2023-05-16T11:31:54.966Z,20.36
2023-05-16T11:32:06.965Z,20.35
2023-05-16T11:32:22.761Z,20.30
2023-05-16T11:32:35.906Z,20.39
2023-05-16T11:32:50.660Z,20.42
2023-05-16T11:33:02.702Z,20.50
2023-05-16T11:33:16.397Z,20.46
2023-05-16T11:33:31.847Z,20.49
2023-05-16T11:33:44.983Z,20.48
2023-05-16T11:33:58.409Z,20.44
2023-05-16T11:34:10.035Z,20.47
2023-05-16T11:34:21.838Z,20.51
2023-05-16T11:34:37.678Z,20.60
2023-05-16T11:34:50.904Z,20.68
2023-05-16T11:35:03.634Z,20.80
2023-05-16T11:35:16.831Z,20.89
2023-05-16T11:35:29.253Z,21.01
2023-05-16T11:35:41.280Z,21.09
2023-05-16T11:36:25.518Z,21.41
2023-05-16T11:36:38.636Z,21.48
2023-05-16T11:36:50.357Z,21.53
2023-05-16T11:37:02.641Z,21.50
2023-05-16T11:37:15.077Z,21.44
2023-05-16T11:37:27.757Z,21.51
2023-05-16T11:37:39.720Z,21.54
2023-05-16T11:37:52.042Z,21.57
2023-05-16T11:38:03.731Z,21.60
2023-05-16T11:38:16.843Z,21.63
2023-05-16T11:38:30.415Z,21.69
2023-05-16T11:38:43.779Z,21.71
2023-05-16T11:39:06.320Z,21.76
2023-05-16T11:39:19.324Z,21.69
2023-05-16T11:39:32.259Z,21.67
2023-05-16T11:39:44.060Z,21.66
2023-05-16T11:40:00.444Z,21.69
2023-05-16T11:40:13.629Z,21.74
2023-05-16T11:40:27.066Z,21.79
2023-05-16T11:40:42.608Z,21.86
2023-05-16T11:40:54.335Z,21.90
2023-05-16T11:41:07.968Z,21.95
2023-05-16T11:41:21.138Z,21.97
2023-05-16T11:41:32.880Z,21.77
2023-05-16T11:41:44.539Z,21.65
2023-05-16T11:41:56.181Z,21.62
2023-05-16T11:42:07.931Z,21.65
2023-05-16T11:42:20.688Z,21.70
2023-05-16T11:42:35.353Z,21.74
2023-05-16T11:42:47.840Z,21.76
2023-05-16T11:43:01.027Z,21.83
2023-05-16T11:43:18.327Z,21.77
2023-05-16T11:43:30.420Z,21.69
2023-05-16T11:43:44.787Z,21.60
2023-05-16T11:44:12.657Z,21.42
2023-05-16T11:44:24.360Z,21.47
2023-05-16T11:44:36.070Z,21.51
2023-05-16T11:44:47.721Z,21.56
2023-05-16T11:45:05.375Z,21.60
2023-05-16T11:45:19.912Z,21.65
2023-05-16T11:45:31.611Z,21.71
2023-05-16T11:45:43.819Z,21.72
2023-05-16T11:45:56.059Z,21.78
2023-05-16T11:46:07.892Z,21.84
2023-05-16T11:46:19.591Z,21.91
2023-05-16T11:46:32.458Z,21.92
2023-05-16T11:46:44.321Z,21.99
2023-05-16T11:46:56.582Z,22.04
2023-05-16T11:47:08.781Z,22.11
2023-05-16T11:47:20.518Z,22.17
2023-05-16T11:47:32.375Z,22.23
2023-05-16T11:47:47.915Z,22.32
2023-05-16T11:48:02.426Z,22.43
2023-05-16T11:48:24.855Z,22.49
2023-05-16T11:48:40.813Z,22.56
2023-05-16T11:48:53.495Z,22.61
2023-05-16T11:49:07.250Z,22.54
2023-05-16T11:49:18.989Z,22.56
2023-05-16T11:49:31.185Z,22.55
2023-05-16T11:49:43.271Z,22.48
2023-05-16T11:49:57.833Z,22.44
2023-05-16T11:50:14.227Z,22.43
2023-05-16T11:50:26.192Z,22.38
2023-05-16T11:50:38.121Z,22.30
2023-05-16T11:50:50.115Z,22.18
2023-05-16T11:51:01.897Z,22.05
2023-05-16T11:51:18.737Z,22.03
2023-05-16T11:51:31.004Z,22.05
2023-05-16T11:51:43.389Z,22.02
2023-05-16T11:51:57.490Z,22.02
2023-05-16T11:52:10.645Z,22.10
2023-05-16T11:52:23.311Z,22.18
2023-05-16T11:52:35.198Z,22.25
2023-05-16T11:52:48.125Z,22.28
2023-05-16T11:52:59.996Z,22.35
2023-05-16T11:53:14.251Z,22.31
2023-05-16T11:53:26.116Z,22.24
2023-05-16T11:53:38.303Z,22.18
2023-05-16T11:53:52.280Z,22.10
2023-05-16T11:54:04.999Z,22.05
2023-05-16T11:54:18.084Z,22.09
2023-05-16T11:54:29.891Z,22.04
2023-05-16T11:54:42.413Z,21.86
2023-05-16T11:54:55.016Z,21.75
2023-05-16T11:55:08.191Z,21.79
2023-05-16T11:55:36.899Z,21.89
2023-05-16T11:55:55.741Z,22.05
2023-05-16T11:56:08.906Z,22.15
2023-05-16T11:56:22.220Z,22.18
2023-05-16T11:56:36.422Z,22.09
2023-05-16T11:56:48.679Z,21.99
2023-05-16T11:57:00.587Z,21.95
2023-05-16T11:57:12.418Z,21.98
2023-05-16T11:57:24.175Z,22.00
2023-05-16T11:57:36.137Z,21.90
2023-05-16T11:57:48.899Z,21.77
2023-05-16T11:58:00.946Z,21.78
2023-05-16T11:58:12.840Z,21.84
2023-05-16T11:58:24.631Z,21.75
2023-05-16T11:58:36.934Z,21.64
2023-05-16T11:58:50.558Z,21.52
2023-05-16T11:59:02.463Z,21.47
2023-05-16T11:59:15.719Z,21.47
2023-05-16T11:59:27.669Z,21.41
2023-05-16T11:59:41.541Z,21.43
2023-05-16T11:59:53.381Z,21.43
2023-05-16T12:00:08.034Z,21.43
2023-05-16T12:00:21.829Z,21.27
2023-05-16T12:00:34.682Z,21.24
2023-05-16T12:00:50.039Z,21.26
2023-05-16T12:01:05.346Z,21.28
2023-05-16T12:01:17.164Z,21.29
2023-05-16T12:01:32.506Z,21.24
2023-05-16T12:01:44.212Z,21.16
2023-05-16T12:01:55.949Z,21.10
2023-05-16T12:02:09.817Z,21.05
2023-05-16T12:02:21.989Z,21.04
2023-05-16T12:02:34.364Z,20.84
2023-05-16T12:02:50.228Z,20.64
2023-05-16T12:03:04.572Z,20.31
2023-05-16T12:03:19.104Z,20.14
2023-05-16T12:03:33.594Z,20.13
2023-05-16T12:03:45.683Z,20.18
2023-05-16T12:03:58.255Z,20.25
2023-05-16T12:04:12.506Z,20.25
2023-05-16T12:04:24.687Z,20.05
2023-05-16T12:04:38.288Z,20.03
2023-05-16T12:04:50.689Z,20.02
2023-05-16T12:05:10.043Z,20.12
2023-05-16T12:05:25.488Z,20.17
2023-05-16T12:05:37.620Z,20.25
2023-05-16T12:05:53.531Z,20.35
2023-05-16T12:06:05.495Z,20.43
2023-05-16T12:06:17.339Z,20.52
2023-05-16T12:06:31.306Z,20.54
2023-05-16T12:06:44.537Z,20.59
2023-05-16T12:07:02.528Z,20.46
2023-05-16T12:07:15.029Z,20.39
2023-05-16T12:07:28.484Z,20.44
2023-05-16T12:07:41.850Z,20.51
2023-05-16T12:07:54.375Z,20.59
2023-05-16T12:08:07.133Z,20.67
2023-05-16T12:08:19.037Z,20.76
2023-05-16T12:08:31.157Z,20.84
2023-05-16T12:08:51.100Z,20.97
2023-05-16T12:09:07.473Z,21.05
2023-05-16T12:09:19.206Z,21.14
2023-05-16T12:09:32.058Z,21.17
2023-05-16T12:09:53.546Z,21.19
2023-05-16T12:10:07.218Z,21.24
2023-05-16T12:10:18.920Z,21.30
2023-05-16T12:10:31.895Z,21.36
2023-05-16T12:10:46.229Z,21.21
2023-05-16T12:10:59.085Z,21.06
2023-05-16T12:11:10.866Z,21.08
2023-05-16T12:11:23.779Z,21.10
2023-05-16T12:11:35.657Z,21.16
2023-05-16T12:11:47.316Z,21.21
2023-05-16T12:12:00.171Z,21.27
2023-05-16T12:12:11.926Z,21.31
2023-05-16T12:12:23.791Z,21.36
2023-05-16T12:12:36.016Z,21.41
2023-05-16T12:12:48.605Z,21.46
2023-05-16T12:13:00.322Z,21.53
2023-05-16T12:13:13.045Z,21.58
2023-05-16T12:13:25.484Z,21.59
2023-05-16T12:13:37.201Z,21.59
2023-05-16T12:13:49.232Z,21.41
2023-05-16T12:14:01.163Z,21.42
2023-05-16T12:14:16.047Z,21.39
2023-05-16T12:14:27.942Z,21.47
2023-05-16T12:14:39.706Z,21.51
2023-05-16T12:14:51.554Z,21.54
2023-05-16T12:15:04.342Z,21.60
2023-05-16T12:15:17.316Z,21.63
2023-05-16T12:15:29.569Z,21.70
2023-05-16T12:15:42.646Z,21.69
2023-05-16T12:15:54.645Z,21.74
2023-05-16T12:16:06.918Z,21.76
2023-05-16T12:16:19.011Z,21.81
2023-05-16T12:16:32.903Z,21.74
2023-05-16T12:16:46.515Z,21.70
2023-05-16T12:16:58.505Z,21.65
2023-05-16T12:17:11.058Z,21.65
2023-05-16T12:17:22.981Z,21.44
2023-05-16T12:17:34.868Z,21.36
2023-05-16T12:17:48.165Z,21.28
2023-05-16T12:18:00.107Z,21.25
2023-05-16T12:18:14.143Z,21.19
2023-05-16T12:18:26.344Z,21.22
2023-05-16T12:18:41.219Z,21.19
2023-05-16T12:18:54.581Z,21.17
2023-05-16T12:19:07.939Z,21.09
2023-05-16T12:19:20.497Z,21.09
2023-05-16T12:19:32.593Z,21.03
2023-05-16T12:19:46.445Z,21.06
2023-05-16T12:19:58.327Z,21.00
2023-05-16T12:20:13.472Z,21.00
2023-05-16T12:20:28.924Z,21.01
2023-05-16T12:20:41.005Z,21.03
2023-05-16T12:20:53.366Z,21.04
2023-05-16T12:21:05.810Z,21.06
2023-05-16T12:21:19.648Z,21.07
2023-05-16T12:21:31.919Z,21.06
2023-05-16T12:21:43.588Z,21.05
2023-05-16T12:21:55.390Z,21.05
2023-05-16T12:22:17.360Z,21.04
2023-05-16T12:22:29.122Z,20.99
2023-05-16T12:22:43.912Z,20.96
2023-05-16T12:22:58.176Z,20.79
2023-05-16T12:23:11.551Z,20.72
2023-05-16T12:23:24.668Z,20.67
2023-05-16T12:23:36.387Z,20.57
2023-05-16T12:23:48.178Z,20.55
2023-05-16T12:24:00.129Z,20.53
2023-05-16T12:24:12.719Z,20.55
2023-05-16T12:24:30.428Z,20.59
2023-05-16T12:24:43.178Z,20.62
2023-05-16T12:24:54.935Z,20.59
2023-05-16T12:25:23.415Z,20.59
2023-05-16T12:25:37.443Z,20.55
2023-05-16T12:25:51.095Z,20.44
2023-05-16T12:26:06.867Z,20.42
2023-05-16T12:26:26.820Z,20.48
2023-05-16T12:26:41.275Z,20.51
2023-05-16T12:26:54.660Z,20.47
2023-05-16T12:27:08.519Z,20.50
2023-05-16T12:27:23.910Z,20.56
2023-05-16T12:27:35.748Z,20.56
2023-05-16T12:27:47.467Z,20.58
2023-05-16T12:28:01.506Z,20.62
2023-05-16T12:28:14.385Z,20.69
2023-05-16T12:28:30.962Z,20.76
2023-05-16T12:28:44.485Z,20.85
2023-05-16T12:29:00.593Z,20.91
2023-05-16T12:29:13.376Z,20.95
2023-05-16T12:29:26.707Z,21.03
2023-05-16T12:29:47.419Z,21.14
2023-05-16T12:29:59.136Z,21.17
2023-05-16T12:30:12.241Z,21.21
2023-05-16T12:30:24.856Z,21.27